createdAt,value
2022-11-25T00:02:33.759Z,194.00
2022-11-25T00:05:16.912Z,188.80
2022-11-25T00:07:59.761Z,190.80
2022-11-25T00:10:42.571Z,189.60
2022-11-25T00:16:22.584Z,194.60
2022-11-25T00:19:05.537Z,181.10
2022-11-25T00:21:48.525Z,182.90
2022-11-25T00:24:32.567Z,183.70
2022-11-25T00:27:15.614Z,169.70
2022-11-25T00:29:58.303Z,175.00
2022-11-25T00:32:41.338Z,172.00
2022-11-25T00:35:24.150Z,166.40
2022-11-25T00:44:14.034Z,168.00
2022-11-25T00:46:57.433Z,161.40
2022-11-25T00:49:46.514Z,153.80
2022-11-25T00:52:29.246Z,169.40
2022-11-25T00:57:54.788Z,167.40
2022-11-25T01:03:20.371Z,163.00
2022-11-25T01:08:46.747Z,156.00
2022-11-25T01:11:30.037Z,164.00
2022-11-25T01:14:12.951Z,162.90
2022-11-25T01:16:55.732Z,155.40
2022-11-25T01:19:40.541Z,173.00
2022-11-25T01:22:23.555Z,174.20
2022-11-25T01:27:50.342Z,166.00
2022-11-25T01:33:21.030Z,171.70
2022-11-25T01:36:24.616Z,169.40
2022-11-25T01:39:08.952Z,176.00
2022-11-25T01:41:52.131Z,164.80
2022-11-25T01:47:23.568Z,170.90
2022-11-25T01:50:11.062Z,166.20
2022-11-25T01:52:56.781Z,153.80
2022-11-25T01:55:49.066Z,155.60
2022-11-25T01:58:35.539Z,160.00
2022-11-25T02:01:18.836Z,165.60
2022-11-25T02:04:02.617Z,145.50
2022-11-25T02:06:52.782Z,156.90
2022-11-25T02:09:43.779Z,149.40
2022-11-25T02:12:28.305Z,151.10
2022-11-25T02:15:15.588Z,143.50
2022-11-25T02:17:58.420Z,146.20
2022-11-25T02:26:26.502Z,144.00
2022-11-25T02:29:09.991Z,146.60
2022-11-25T02:31:53.660Z,144.30
2022-11-25T02:34:46.025Z,143.80
2022-11-25T02:37:29.365Z,136.50
2022-11-25T02:40:14.563Z,139.20
2022-11-25T02:43:00.333Z,139.20
2022-11-25T02:45:57.734Z,131.70
2022-11-25T02:51:46.023Z,127.20
2022-11-25T02:54:28.826Z,140.70
2022-11-25T02:59:54.390Z,134.40
2022-11-25T03:05:21.496Z,137.90
2022-11-25T03:08:05.311Z,131.50
2022-11-25T03:10:52.559Z,132.60
2022-11-25T03:13:35.484Z,142.20
2022-11-25T03:16:19.511Z,138.40
2022-11-25T03:19:02.936Z,131.60
2022-11-25T03:21:45.692Z,122.10
2022-11-25T03:27:11.380Z,135.90
2022-11-25T03:29:54.573Z,121.30
2022-11-25T03:32:38.840Z,123.80
2022-11-25T03:35:23.499Z,128.50
2022-11-25T03:38:06.361Z,119.10
2022-11-25T03:40:51.752Z,117.10
2022-11-25T03:43:35.821Z,128.30
2022-11-25T03:46:19.467Z,134.40
2022-11-25T03:49:02.864Z,116.50
2022-11-25T03:51:45.607Z,129.70
2022-11-25T03:54:29.373Z,117.90
2022-11-25T03:57:31.231Z,127.10
2022-11-25T04:00:14.707Z,111.80
2022-11-25T04:03:09.493Z,123.60
2022-11-25T04:05:52.311Z,116.70
2022-11-25T04:08:35.431Z,112.40
2022-11-25T04:11:18.665Z,122.30
2022-11-25T04:14:03.449Z,120.00
2022-11-25T04:16:46.903Z,115.80
2022-11-25T04:19:29.854Z,117.30
2022-11-25T04:22:12.669Z,115.60
2022-11-25T04:24:58.515Z,125.70
2022-11-25T04:27:41.975Z,120.00
2022-11-25T04:30:25.749Z,125.70
2022-11-25T04:33:10.000Z,115.40
2022-11-25T04:35:53.737Z,122.50
2022-11-25T04:38:37.060Z,117.00
2022-11-25T04:41:20.168Z,114.10
2022-11-25T04:44:04.271Z,124.30
2022-11-25T04:46:48.250Z,121.00
2022-11-25T04:49:31.343Z,124.20
2022-11-25T04:52:14.221Z,120.80
2022-11-25T04:54:57.451Z,122.80
2022-11-25T04:57:40.721Z,123.70
2022-11-25T05:00:24.436Z,136.90
2022-11-25T05:03:09.663Z,119.80
2022-11-25T05:05:52.802Z,124.20
2022-11-25T05:11:18.675Z,120.80
2022-11-25T05:14:02.010Z,112.90
2022-11-25T05:16:45.016Z,129.50
2022-11-25T05:19:28.651Z,108.90
2022-11-25T05:22:13.948Z,106.50
2022-11-25T05:24:57.617Z,108.70
2022-11-25T05:27:40.552Z,104.30
2022-11-25T05:30:25.011Z,109.90
2022-11-25T05:33:08.160Z,116.60
2022-11-25T05:35:58.573Z,105.60
2022-11-25T05:38:45.144Z,105.60
2022-11-25T05:41:30.551Z,111.20
2022-11-25T05:44:18.398Z,104.90
2022-11-25T05:47:04.847Z,114.60
2022-11-25T05:49:48.550Z,108.60
2022-11-25T05:52:32.219Z,106.90
2022-11-25T05:55:16.381Z,112.90
2022-11-25T05:58:03.292Z,100.70
2022-11-25T06:00:46.202Z,111.30
2022-11-25T06:03:30.082Z,108.40
2022-11-25T06:06:13.772Z,110.20
2022-11-25T06:08:57.301Z,110.40
2022-11-25T06:11:40.924Z,107.00
2022-11-25T06:14:24.060Z,106.00
2022-11-25T06:17:07.374Z,109.10
2022-11-25T06:19:54.823Z,107.50
2022-11-25T06:25:20.625Z,116.70
2022-11-25T06:28:12.692Z,109.70
2022-11-25T06:31:04.904Z,104.70
2022-11-25T06:33:54.591Z,108.70
2022-11-25T06:36:37.492Z,107.90
2022-11-25T06:42:03.249Z,112.40
2022-11-25T06:47:29.367Z,111.90
2022-11-25T06:50:12.380Z,105.60
2022-11-25T06:52:55.379Z,100.70
2022-11-25T06:58:35.532Z,105.00
2022-11-25T07:01:22.194Z,114.10
2022-11-25T07:04:05.947Z,101.00
2022-11-25T07:06:50.104Z,101.70
2022-11-25T07:09:33.409Z,98.60
2022-11-25T07:12:16.222Z,105.00
2022-11-25T07:14:59.085Z,116.10
2022-11-25T07:23:10.776Z,118.10
2022-11-25T07:28:37.211Z,110.90
2022-11-25T07:31:36.097Z,112.70
2022-11-25T07:34:21.370Z,118.20
2022-11-25T07:37:04.296Z,121.20
2022-11-25T07:39:47.064Z,122.40
2022-11-25T07:45:12.564Z,106.20
2022-11-25T07:48:02.952Z,116.70
2022-11-25T07:50:47.440Z,108.70
2022-11-25T07:53:30.464Z,107.30
2022-11-25T07:56:14.686Z,108.00
2022-11-25T07:58:58.213Z,112.80
2022-11-25T08:01:45.449Z,107.40
2022-11-25T08:04:28.546Z,114.00
2022-11-25T08:07:11.913Z,110.30
2022-11-25T08:09:54.836Z,107.30
2022-11-25T08:12:37.681Z,118.00
2022-11-25T08:18:03.323Z,117.30
2022-11-25T08:20:47.773Z,115.10
2022-11-25T08:23:32.203Z,123.70
2022-11-25T08:26:21.802Z,112.00
2022-11-25T08:29:07.063Z,120.60
2022-11-25T08:31:49.899Z,117.70
2022-11-25T08:39:59.237Z,112.70
2022-11-25T08:42:42.259Z,108.80
2022-11-25T08:48:07.888Z,120.40
2022-11-25T08:50:54.963Z,122.30
2022-11-25T08:53:38.416Z,120.10
2022-11-25T08:56:26.253Z,120.50
2022-11-25T08:59:09.455Z,117.30
2022-11-25T09:04:35.763Z,108.50
2022-11-25T09:07:18.878Z,119.40
2022-11-25T09:10:01.768Z,122.30
2022-11-25T09:12:44.567Z,121.90
2022-11-25T09:15:27.777Z,115.70
2022-11-25T09:18:11.809Z,130.30
2022-11-25T09:20:55.844Z,121.40
2022-11-25T09:23:39.905Z,123.80
2022-11-25T09:26:28.397Z,122.60
2022-11-25T09:29:13.568Z,116.10
2022-11-25T09:31:57.165Z,113.80
2022-11-25T09:34:40.093Z,118.20
2022-11-25T09:37:23.001Z,112.80
2022-11-25T09:43:24.752Z,111.20
2022-11-25T09:46:41.987Z,119.40
2022-11-25T09:49:34.063Z,112.10
2022-11-25T09:52:30.135Z,119.30
2022-11-25T09:55:17.908Z,121.70
2022-11-25T09:58:25.951Z,120.80
2022-11-25T10:01:17.266Z,125.10
2022-11-25T10:04:24.774Z,115.40
2022-11-25T10:07:38.076Z,123.50
2022-11-25T10:10:53.556Z,126.50
2022-11-25T10:14:02.298Z,120.40
2022-11-25T10:16:55.473Z,122.10
2022-11-25T10:20:12.548Z,125.20
2022-11-25T10:23:02.525Z,129.00
2022-11-25T10:25:48.438Z,123.60
2022-11-25T10:28:33.600Z,120.70
